Terminal Aerodrome Forecast
Issued by NWS

Home | Current Version | Previous Version | Text Only | Print | Product List | Glossary On
Versions: 1 2 3 4 5 6 7 8 9 10 11 12 13 14 15 16 17 18 19 20 21 22 23 24 25 26
000
FTUS43 KILX 200500
TAFDEC
TAF
KDEC 200533Z 2006/2106 13003KT P6SM OVC060
     FM200800 14003KT 5SM BR BKN050
     FM201000 14003KT 4SM BR BKN025
     FM201600 16005KT P6SM SCT025 OVC035=

USA.gov is the U.S. government's official web portal to all federal, state and local government web resources and services.